Flight Track Log - Related Links

Times and Time Zones

All times are in EDT time to prevent confusion due to time zone crossing. See the AAL2345 flight status page for this flight to view local times or setup timezone preferences in your user account.

Time Position Orientation Groundspeed Altitude Reporting Facility
EDT Latitude Longitude Course Direction KTS MPH feet Rate Location/Type
Tue 06:51:01 PM 41.9333 -87.9833 207° Southwest 198 228 2,900  Level Chicago TRACON
Tue 06:52:13 PM 41.8747 -88.0006 192° South 227 261 5,300 2,597 Climbing Chicago Center
Tue 06:53:15 PM 41.7917 -87.9961 178° South 256 295 8,700 2,952 Climbing Chicago Center
Tue 06:54:17 PM 41.7267 -88.0344 204° Southwest 257 296 11,400 2,177 Climbing Chicago Center
Tue 06:55:19 PM 41.6533 -88.0681 199° South 277 319 13,200 1,548 Climbing Chicago Center
Tue 06:56:00 PM 41.4894 -88.4856 207° Southwest  Level Estimated
Tue 06:56:21 PM 41.5672 -88.1072 199° South 328 377 14,600  Level Chicago Center
Tue 06:57:23 PM 41.4539 -88.1578 198° South 364 419 17,200 2,274 Climbing Chicago Center
Tue 06:58:25 PM 41.3567 -88.2031 199° South 384 442 19,300 1,742 Climbing Chicago Center
Tue 06:59:27 PM 41.2522 -88.2489 198° South 398 458 20,800 1,645 Climbing Chicago Center
Tue 07:00:29 PM 41.1436 -88.2981 199° South 411 473 22,700 1,935 Climbing Chicago Center
Tue 07:01:31 PM 41.0103 -88.3592 199° South 423 487 24,800 1,790 Climbing Chicago Center
Tue 07:02:33 PM 40.8972 -88.4106 199° South 430 495 26,400 1,344 Climbing Chicago Center
Tue 07:03:36 PM 40.7817 -88.4628 199° South 438 504 27,600 1,248 Climbing Chicago Center
Tue 07:04:38 PM 40.6639 -88.5136 198° South 447 514 29,000 1,306 Climbing Chicago Center
Tue 07:05:40 PM 40.5447 -88.5667 199° South 453 521 30,300 1,306 Climbing Chicago Center
Tue 07:06:42 PM 40.4094 -88.6258 198° South 449 517 31,700 1,161 Climbing Chicago Center
Tue 07:07:44 PM 40.2947 -88.6903 203° Southwest 452 520 32,700 919 Climbing Chicago Center
Tue 07:08:46 PM 40.1978 -88.7900 218° Southwest 444 511 33,600 655 Climbing Chicago Center
Tue 07:09:43 PM 40.0989 -88.8911 218° Southwest 443 510 34,000 202 Climbing Kansas City Center
Tue 07:10:45 PM 40.0017 -88.9914 218° Southwest 443 510 34,000  Level Kansas City Center
Tue 07:11:47 PM 39.9039 -89.0889 217° Southwest 442 509 34,000  Level Kansas City Center
Tue 07:12:49 PM 39.8069 -89.1892 218° Southwest 442 509 34,000  Level Kansas City Center
Tue 07:13:51 PM 39.7103 -89.2886 218° Southwest 442 509 34,000  Level Kansas City Center
Tue 07:14:53 PM 39.6006 -89.3981 218° Southwest 440 506 34,000  Level Kansas City Center
Tue 07:15:55 PM 39.5047 -89.4956 218° Southwest 439 505 34,000  Level Kansas City Center
Tue 07:16:57 PM 39.4094 -89.5928 218° Southwest 438 504 34,000  Level Kansas City Center
Tue 07:17:59 PM 39.3131 -89.6886 218° Southwest 437 503 34,000  Level Kansas City Center
Tue 07:19:01 PM 39.2161 -89.7861 218° Southwest 440 506 34,000  Level Kansas City Center
Tue 07:20:03 PM 39.1006 -89.9025 218° Southwest 442 509 34,000  Level Kansas City Center
Tue 07:21:05 PM 39.0039 -89.9978 217° Southwest 439 505 34,000  Level Kansas City Center
Tue 07:22:07 PM 38.9214 -90.1075 226° Southwest 434 499 34,000  Level Kansas City Center
Tue 07:23:09 PM 38.8389 -90.2222 227° Southwest 434 499 34,000  Level Kansas City Center
Tue 07:24:11 PM 38.7550 -90.3364 227° Southwest 437 503 34,000  Level Kansas City Center
Tue 07:25:13 PM 38.6542 -90.4761 227° Southwest 441 507 34,000  Level Kansas City Center
Tue 07:26:15 PM 38.5656 -90.5903 225° Southwest 452 520 34,000  Level Kansas City Center
Tue 07:27:17 PM 38.4800 -90.7044 226° Southwest 446 513 34,000  Level Kansas City Center
Tue 07:28:19 PM 38.4022 -90.8089 226° Southwest 449 517 34,000  Level Kansas City Center
Tue 07:29:21 PM 38.3036 -90.9511 229° Southwest 451 519 34,000  Level Kansas City Center
Tue 07:30:23 PM 38.2375 -91.0856 238° Southwest 449 517 34,000  Level Kansas City Center
Tue 07:31:25 PM 38.1608 -91.2358 237° Southwest 452 520 34,000  Level Kansas City Center
Tue 07:32:27 PM 38.0964 -91.3719 239° Southwest 450 518 34,000  Level Kansas City Center
Tue 07:33:29 PM 38.0294 -91.5100 238° Southwest 455 524 34,000  Level Kansas City Center
Tue 07:34:31 PM 37.9658 -91.6483 240° Southwest 453 521 34,000  Level Kansas City Center
Tue 07:35:33 PM 37.8981 -91.7844 238° Southwest 452 520 34,000  Level Kansas City Center
Tue 07:36:35 PM 37.8331 -91.9244 240° Southwest 455 524 34,000  Level Kansas City Center
Tue 07:37:37 PM 37.7669 -92.0633 239° Southwest 455 524 34,000  Level Kansas City Center
Tue 07:38:39 PM 37.6678 -92.1719 221° Southwest 452 520 34,000  Level Kansas City Center
Tue 07:39:41 PM 37.5683 -92.2672 217° Southwest 451 519 34,000  Level Kansas City Center
Tue 07:40:43 PM 37.4472 -92.3825 217° Southwest 451 519 34,000  Level Kansas City Center
Tue 07:41:46 PM 37.3458 -92.4786 217° Southwest 453 521 34,000  Level Kansas City Center
Tue 07:42:48 PM 37.2456 -92.5731 217° Southwest 450 518 34,000  Level Kansas City Center
Tue 07:43:50 PM 37.1439 -92.6683 217° Southwest 452 520 34,000  Level Kansas City Center
Tue 07:44:52 PM 37.0431 -92.7622 217° Southwest 450 518 34,000  Level Kansas City Center
Tue 07:45:54 PM 36.9425 -92.8553 216° Southwest 448 516 34,000  Level Kansas City Center
Tue 07:46:33 PM 36.8636 -92.9319 218° Southwest 462 532 34,000  Level Memphis Center
Tue 07:47:33 PM 36.7658 -93.0272 218° Southwest 462 532 34,000  Level Memphis Center
Tue 07:48:33 PM 36.6639 -93.1194 216° Southwest 462 532 34,000  Level Memphis Center
Tue 07:49:33 PM 36.5639 -93.2092 216° Southwest 462 532 34,000  Level Memphis Center
Tue 07:50:33 PM 36.4681 -93.3014 218° Southwest 457 526 34,000  Level Memphis Center
Tue 07:51:33 PM 36.3764 -93.3806 215° Southwest 457 526 34,000  Level Memphis Center
Tue 07:52:33 PM 36.2761 -93.4719 216° Southwest 450 518 34,000  Level Memphis Center
Tue 07:53:33 PM 36.1781 -93.5633 217° Southwest 450 518 34,000  Level Memphis Center
Tue 07:54:33 PM 36.0819 -93.6494 216° Southwest 445 512 34,000  Level Memphis Center
Tue 07:55:33 PM 35.9856 -93.7406 217° Southwest 440 506 34,000  Level Memphis Center
Tue 07:56:33 PM 35.8767 -93.8386 216° Southwest 447 514 34,000  Level Memphis Center
Tue 07:57:33 PM 35.7803 -93.9242 216° Southwest 442 509 34,000  Level Memphis Center
Tue 07:58:33 PM 35.6797 -94.0117 215° Southwest 442 509 34,000  Level Memphis Center
Tue 07:59:33 PM 35.5833 -94.0994 217° Southwest 452 520 34,000  Level Memphis Center
Tue 08:00:33 PM 35.4847 -94.1892 217° Southwest 446 513 34,000  Level Memphis Center
Tue 08:01:33 PM 35.3861 -94.2764 216° Southwest 446 513 34,000  Level Memphis Center
Tue 08:02:33 PM 35.2953 -94.3739 221° Southwest 440 506 34,000  Level Memphis Center
Tue 08:03:33 PM 35.2067 -94.4714 222° Southwest 435 501 34,000  Level Memphis Center
Tue 08:04:33 PM 35.1158 -94.5683 221° Southwest 435 501 34,000  Level Memphis Center
Tue 08:08:30 PM 34.7667 -94.9492 222° Southwest 432 497 34,000 -61 Level Fort Worth Center
Tue 08:09:30 PM 34.6769 -95.0450 221° Southwest 438 504 33,700 -500 Descending Fort Worth Center
Tue 08:10:30 PM 34.5869 -95.1433 222° Southwest 438 504 33,000 -1,000 Descending Fort Worth Center
Tue 08:11:30 PM 34.4928 -95.2442 221° Southwest 443 510 31,700 -1,350 Descending Fort Worth Center
Tue 08:12:30 PM 34.3983 -95.3447 221° Southwest 448 516 30,300 -1,400 Descending Fort Worth Center
Tue 08:13:30 PM 34.3019 -95.4425 220° Southwest 453 521 28,900 -1,400 Descending Fort Worth Center
Tue 08:14:30 PM 34.2136 -95.5350 221° Southwest 447 514 27,500 -1,600 Descending Fort Worth Center
Tue 08:15:30 PM 34.1150 -95.6400 221° Southwest 447 514 25,700 -1,800 Descending Fort Worth Center
Tue 08:16:30 PM 34.0347 -95.7217 220° Southwest 436 502 23,900 -1,900 Descending Fort Worth Center
Tue 08:17:30 PM 33.9483 -95.8111 221° Southwest 428 493 21,900 -2,050 Descending Fort Worth Center
Tue 08:18:30 PM 33.8533 -95.9128 222° Southwest 423 487 19,800 -2,200 Descending Fort Worth Center
Tue 08:19:30 PM 33.7689 -95.9967 220° Southwest 412 474 17,500 -2,100 Descending Fort Worth Center
Tue 08:20:30 PM 33.6864 -96.0831 221° Southwest 407 468 15,600 -2,000 Descending Fort Worth Center
Tue 08:21:30 PM 33.6036 -96.1664 220° Southwest 396 456 13,500 -1,750 Descending Fort Worth Center
Tue 08:22:30 PM 33.5272 -96.2497 222° Southwest 383 441 12,100 -1,150 Descending Fort Worth Center
Tue 08:23:30 PM 33.4550 -96.3353 225° Southwest 368 423 11,200 -550 Descending Fort Worth Center
Tue 08:24:30 PM 33.3908 -96.4108 225° Southwest 345 397 11,000 -700 Descending Fort Worth Center
Tue 08:25:30 PM 33.3331 -96.4836 226° Southwest 317 365 9,800 -1,300 Descending Fort Worth Center
Tue 08:26:30 PM 33.2856 -96.5611 234° Southwest 307 353 8,400 -1,350 Descending Fort Worth Center
Tue 08:27:30 PM 33.2611 -96.6508 252° West 287 330 7,100 -1,500 Descending Fort Worth Center
Tue 08:28:30 PM 33.2344 -96.7381 250° West 282 325 5,400 -1,050 Descending Fort Worth Center
Tue 08:29:30 PM 33.1950 -96.8028 234° Southwest 275 316 5,000 -350 Descending Fort Worth Center
Tue 08:30:30 PM 33.1475 -96.8725 231° Southwest 270 311 4,700 -850 Descending Fort Worth Center
Tue 08:31:30 PM 33.0956 -96.9472 230° Southwest 280 322 3,300 -1,400 Descending Fort Worth Center

Login

Don't have an account? Register now (free) for customized features, flight alerts, and more!